createdAt,value
2023-04-02T00:02:23.758Z,28.92
2023-04-02T00:05:27.524Z,28.98
2023-04-02T00:08:02.056Z,29.04
2023-04-02T00:10:52.725Z,29.04
2023-04-02T00:13:30.660Z,29.07
2023-04-02T00:16:02.223Z,29.11
2023-04-02T00:18:32.711Z,29.15
2023-04-02T00:21:20.027Z,29.16
2023-04-02T00:23:50.830Z,29.19
2023-04-02T00:26:28.074Z,29.23
2023-04-02T00:28:58.258Z,29.26
2023-04-02T00:31:28.959Z,29.29
2023-04-02T00:33:59.895Z,29.30
2023-04-02T00:36:32.121Z,29.33
2023-04-02T00:39:03.552Z,29.37
2023-04-02T00:41:37.956Z,29.42
2023-04-02T00:44:08.314Z,29.46
2023-04-02T00:46:50.011Z,29.50
2023-04-02T00:49:20.297Z,29.47
2023-04-02T00:51:54.887Z,29.52
2023-04-02T00:54:27.172Z,29.57
2023-04-02T00:56:59.640Z,29.62
2023-04-02T00:59:29.955Z,29.64
2023-04-02T01:02:21.394Z,29.66
2023-04-02T01:04:56.629Z,29.70
2023-04-02T01:07:46.411Z,29.74
2023-04-02T01:10:16.915Z,29.77
2023-04-02T01:12:53.279Z,29.79
2023-04-02T01:15:28.602Z,29.80
2023-04-02T01:18:19.650Z,29.82
2023-04-02T01:21:13.116Z,29.88
2023-04-02T01:23:49.649Z,29.91
2023-04-02T01:26:42.476Z,29.95
2023-04-02T01:29:13.049Z,29.99
2023-04-02T01:31:44.139Z,30.03
2023-04-02T01:34:22.956Z,30.08
2023-04-02T01:36:59.857Z,30.14
2023-04-02T01:39:47.739Z,30.16
2023-04-02T01:42:27.152Z,30.20
2023-04-02T01:45:06.765Z,30.21
2023-04-02T01:47:37.019Z,30.27
2023-04-02T01:50:19.092Z,30.27
2023-04-02T01:52:51.423Z,30.30
2023-04-02T01:55:33.126Z,30.31
2023-04-02T01:58:05.268Z,30.33
2023-04-02T02:00:38.251Z,30.34
2023-04-02T02:03:10.128Z,30.35
2023-04-02T02:05:40.523Z,30.41
2023-04-02T02:08:19.538Z,30.42
2023-04-02T02:10:50.963Z,30.42
2023-04-02T02:13:21.063Z,30.44
2023-04-02T02:15:52.290Z,30.45
2023-04-02T02:18:26.311Z,30.51
2023-04-02T02:20:58.703Z,30.55
2023-04-02T02:23:31.474Z,30.59
2023-04-02T02:26:02.386Z,30.61
2023-04-02T02:28:38.274Z,30.63
2023-04-02T02:31:14.338Z,30.68
2023-04-02T02:33:50.860Z,30.70
2023-04-02T02:36:36.491Z,30.74
2023-04-02T02:39:14.946Z,30.77
2023-04-02T02:41:49.142Z,30.81
2023-04-02T02:44:26.604Z,30.87
2023-04-02T02:47:04.438Z,30.91
2023-04-02T02:49:37.135Z,30.95
2023-04-02T02:52:16.413Z,30.99
2023-04-02T02:55:19.055Z,31.04
2023-04-02T02:57:58.081Z,31.07
2023-04-02T03:00:32.211Z,31.11
2023-04-02T03:03:06.164Z,31.14
2023-04-02T03:05:37.656Z,31.19
2023-04-02T03:08:17.051Z,31.22
2023-04-02T03:11:04.545Z,31.24
2023-04-02T03:13:36.894Z,31.28
2023-04-02T03:16:11.270Z,31.31
2023-04-02T03:18:41.757Z,31.32
2023-04-02T03:21:24.395Z,31.35
2023-04-02T03:24:17.617Z,31.38
2023-04-02T03:26:54.233Z,31.40
2023-04-02T03:29:28.519Z,31.43
2023-04-02T03:32:02.872Z,31.43
2023-04-02T03:34:36.132Z,31.46
2023-04-02T03:37:19.430Z,31.47
2023-04-02T03:39:54.630Z,31.48
2023-04-02T03:42:27.476Z,31.50
2023-04-02T03:45:08.051Z,31.52
2023-04-02T03:47:42.423Z,31.46
2023-04-02T03:50:20.758Z,31.38
2023-04-02T03:52:52.454Z,31.34
2023-04-02T03:55:22.888Z,31.28
2023-04-02T03:58:17.056Z,31.25
2023-04-02T04:00:52.384Z,31.25
2023-04-02T04:03:28.750Z,31.25
2023-04-02T04:06:04.124Z,31.24
2023-04-02T04:08:39.497Z,31.25
2023-04-02T04:11:17.945Z,31.30
2023-04-02T04:13:52.829Z,31.36
2023-04-02T04:16:27.982Z,31.43
2023-04-02T04:19:05.092Z,31.52
2023-04-02T04:21:40.569Z,31.57
2023-04-02T04:24:27.356Z,31.65
2023-04-02T04:27:05.215Z,31.64
2023-04-02T04:29:41.854Z,31.66
2023-04-02T04:32:38.654Z,31.70
2023-04-02T04:35:23.852Z,31.74
2023-04-02T04:38:13.687Z,31.73
2023-04-02T04:40:53.947Z,31.77
2023-04-02T04:43:32.209Z,31.85
2023-04-02T04:46:07.207Z,31.89
2023-04-02T04:48:50.501Z,31.94
2023-04-02T04:51:33.603Z,31.98
2023-04-02T04:54:04.125Z,32.01
2023-04-02T04:56:39.304Z,32.04
2023-04-02T04:59:29.571Z,32.05
2023-04-02T05:02:00.353Z,32.09
2023-04-02T05:04:30.514Z,32.12
2023-04-02T05:07:17.235Z,32.14
2023-04-02T05:09:56.118Z,32.19
2023-04-02T05:12:26.935Z,32.20
2023-04-02T05:15:07.091Z,32.21
2023-04-02T05:17:40.360Z,32.24
2023-04-02T05:20:17.647Z,32.26
2023-04-02T05:22:51.718Z,32.28
2023-04-02T05:25:22.468Z,32.31
2023-04-02T05:28:02.768Z,32.33
2023-04-02T05:30:40.345Z,32.35
2023-04-02T05:33:28.761Z,32.36
2023-04-02T05:36:23.000Z,32.26
2023-04-02T05:38:58.276Z,32.22
2023-04-02T05:41:48.928Z,32.24
2023-04-02T05:44:39.708Z,32.32
2023-04-02T05:47:21.485Z,32.41
2023-04-02T05:49:55.794Z,32.47
2023-04-02T05:52:29.826Z,32.32
2023-04-02T05:55:04.718Z,32.08
2023-04-02T05:58:29.381Z,31.82
2023-04-02T06:01:15.123Z,31.57
2023-04-02T06:03:51.816Z,31.44
2023-04-02T06:06:43.112Z,31.30
2023-04-02T06:09:30.822Z,31.19
2023-04-02T06:12:24.196Z,31.07
2023-04-02T06:14:55.121Z,31.02
2023-04-02T06:17:29.218Z,31.00
2023-04-02T06:20:01.589Z,30.99
2023-04-02T06:22:41.082Z,30.91
2023-04-02T06:25:31.953Z,30.87
2023-04-02T06:28:05.685Z,30.84
2023-04-02T06:30:38.196Z,30.80
2023-04-02T06:33:10.295Z,30.73
2023-04-02T06:35:43.319Z,30.31
2023-04-02T06:38:19.219Z,30.67
2023-04-02T06:40:59.103Z,30.65
2023-04-02T06:44:17.006Z,30.66
2023-04-02T06:47:31.962Z,30.62
2023-04-02T06:50:23.893Z,30.59
2023-04-02T06:52:56.424Z,30.59
2023-04-02T06:55:48.036Z,30.58
2023-04-02T06:58:23.431Z,30.57
2023-04-02T07:00:54.899Z,30.61
2023-04-02T07:03:39.143Z,30.61
2023-04-02T07:06:19.399Z,30.61
2023-04-02T07:08:51.556Z,30.64
2023-04-02T07:11:24.941Z,30.65
2023-04-02T07:13:58.059Z,30.65
2023-04-02T07:16:29.647Z,30.65
2023-04-02T07:19:06.948Z,30.71
2023-04-02T07:21:40.497Z,30.72
2023-04-02T07:24:10.766Z,30.76
2023-04-02T07:26:42.083Z,30.76
2023-04-02T07:29:16.234Z,30.80
2023-04-02T07:31:46.960Z,30.81
2023-04-02T07:34:20.757Z,30.84
2023-04-02T07:36:50.867Z,30.87
2023-04-02T07:39:21.298Z,30.91
2023-04-02T07:42:16.321Z,30.94
2023-04-02T07:44:46.678Z,30.96
2023-04-02T07:47:16.899Z,30.99
2023-04-02T07:49:46.938Z,31.01
2023-04-02T07:52:18.508Z,31.02
2023-04-02T07:54:48.908Z,31.06
2023-04-02T07:57:19.588Z,31.07
2023-04-02T07:59:51.065Z,31.07
2023-04-02T08:02:22.522Z,31.08
2023-04-02T08:04:53.259Z,31.11
2023-04-02T08:07:23.649Z,31.13
2023-04-02T08:09:53.805Z,31.17
2023-04-02T08:12:24.189Z,31.21
2023-04-02T08:14:54.705Z,31.21
2023-04-02T08:17:24.771Z,31.27
2023-04-02T08:19:55.448Z,31.31
2023-04-02T08:22:51.163Z,31.34
2023-04-02T08:25:23.991Z,31.38
2023-04-02T08:27:54.544Z,31.40
2023-04-02T08:30:25.144Z,31.38
2023-04-02T08:33:21.152Z,31.42
2023-04-02T08:35:55.722Z,31.43
2023-04-02T08:38:27.304Z,31.50
2023-04-02T08:40:58.673Z,31.51
2023-04-02T08:43:42.213Z,31.53
2023-04-02T08:46:16.489Z,31.51
2023-04-02T08:48:52.400Z,31.54
2023-04-02T08:51:25.626Z,31.55
2023-04-02T08:54:01.822Z,31.58
2023-04-02T08:56:52.094Z,31.63
2023-04-02T08:59:28.944Z,31.64
2023-04-02T09:02:17.413Z,31.69
2023-04-02T09:04:47.843Z,31.76
2023-04-02T09:07:43.504Z,31.79
2023-04-02T09:10:19.853Z,31.82
2023-04-02T09:12:53.161Z,31.84
2023-04-02T09:15:49.393Z,31.84
2023-04-02T09:18:23.540Z,31.86
2023-04-02T09:20:53.754Z,31.90
2023-04-02T09:23:26.172Z,31.92
2023-04-02T09:26:03.999Z,32.01
2023-04-02T09:28:35.089Z,32.13
2023-04-02T09:31:14.263Z,32.39
2023-04-02T09:33:47.849Z,32.62
2023-04-02T09:36:35.483Z,32.84
2023-04-02T09:39:08.184Z,33.11
2023-04-02T09:41:38.771Z,33.32
2023-04-02T09:44:25.550Z,33.48
2023-04-02T09:46:56.444Z,33.60
2023-04-02T09:49:28.323Z,33.64
2023-04-02T09:52:07.754Z,33.68
2023-04-02T09:54:43.198Z,33.74
2023-04-02T09:57:40.252Z,33.77
2023-04-02T10:00:32.122Z,33.81
2023-04-02T10:03:05.462Z,33.79
2023-04-02T10:05:40.937Z,33.78
2023-04-02T10:08:21.195Z,33.77
2023-04-02T10:10:52.885Z,33.78
2023-04-02T10:13:22.914Z,33.78
2023-04-02T10:15:59.098Z,33.77
2023-04-02T10:18:58.556Z,33.74
2023-04-02T10:21:30.494Z,33.77
2023-04-02T10:24:04.420Z,33.75
2023-04-02T10:26:44.711Z,33.73
2023-04-02T10:29:38.104Z,33.72
2023-04-02T10:32:27.026Z,33.71
2023-04-02T10:35:12.910Z,33.69
2023-04-02T10:37:46.196Z,33.68
2023-04-02T10:40:19.495Z,33.64
2023-04-02T10:42:52.661Z,33.88
2023-04-02T10:45:42.875Z,34.05
2023-04-02T10:48:15.943Z,34.11
2023-04-02T10:50:46.328Z,34.32
2023-04-02T10:53:22.002Z,34.40
2023-04-02T10:55:59.750Z,34.47
2023-04-02T10:58:32.075Z,34.51
2023-04-02T11:01:10.575Z,34.53
2023-04-02T11:04:04.220Z,34.56
2023-04-02T11:06:40.936Z,34.58
2023-04-02T11:09:17.738Z,34.61
2023-04-02T11:11:50.612Z,34.19
2023-04-02T11:14:26.104Z,34.62
2023-04-02T11:16:57.184Z,34.63
2023-04-02T11:19:28.966Z,34.62
2023-04-02T11:22:25.013Z,34.61
2023-04-02T11:24:57.400Z,34.60
2023-04-02T11:27:27.560Z,34.60
2023-04-02T11:30:05.544Z,34.58
2023-04-02T11:32:46.719Z,34.57
2023-04-02T11:35:28.639Z,34.57
2023-04-02T11:38:05.529Z,34.54
2023-04-02T11:40:46.061Z,34.47
2023-04-02T11:43:34.697Z,34.25
2023-04-02T11:46:27.731Z,34.10
2023-04-02T11:49:17.548Z,34.05
2023-04-02T11:51:47.737Z,34.00
2023-04-02T11:54:26.818Z,33.92
2023-04-02T11:57:17.736Z,33.87
2023-04-02T11:59:58.971Z,33.83
2023-04-02T12:02:40.400Z,33.82
2023-04-02T12:05:26.209Z,33.72
2023-04-02T12:08:14.784Z,33.64
2023-04-02T12:10:51.273Z,33.60
2023-04-02T12:13:22.809Z,33.62
2023-04-02T12:15:54.253Z,33.47
2023-04-02T12:18:25.831Z,33.42
2023-04-02T12:20:57.716Z,33.36
2023-04-02T12:23:35.387Z,33.35
2023-04-02T12:26:10.152Z,33.38
2023-04-02T12:28:40.440Z,33.37
2023-04-02T12:31:10.511Z,33.31
2023-04-02T12:33:41.540Z,33.24
2023-04-02T12:36:17.562Z,33.08
2023-04-02T12:38:55.010Z,32.99
2023-04-02T12:41:31.529Z,32.55
2023-04-02T12:44:02.775Z,32.80
2023-04-02T12:46:34.660Z,32.75
2023-04-02T12:49:09.633Z,32.69
2023-04-02T12:51:40.146Z,32.64
2023-04-02T12:54:16.345Z,32.61
2023-04-02T12:56:46.565Z,32.58
2023-04-02T12:59:40.623Z,32.55
2023-04-02T13:02:28.017Z,32.53
2023-04-02T13:05:02.343Z,32.46
2023-04-02T13:07:34.324Z,32.43
2023-04-02T13:10:22.604Z,32.40
2023-04-02T13:12:57.452Z,32.35
2023-04-02T13:15:33.409Z,32.36
2023-04-02T13:18:23.380Z,32.36
2023-04-02T13:20:58.891Z,32.25
2023-04-02T13:23:33.234Z,32.09
2023-04-02T13:26:17.338Z,31.93
2023-04-02T13:29:04.305Z,31.74
2023-04-02T13:31:34.906Z,31.60
2023-04-02T13:34:05.178Z,31.48
2023-04-02T13:36:36.164Z,31.37
2023-04-02T13:39:06.437Z,31.27
2023-04-02T13:41:46.345Z,31.20
2023-04-02T13:44:32.708Z,31.13
2023-04-02T13:47:03.358Z,31.04
2023-04-02T13:49:34.038Z,30.96
2023-04-02T13:52:07.283Z,30.91
2023-04-02T13:54:43.445Z,30.83
2023-04-02T13:57:14.052Z,30.78
2023-04-02T13:59:44.280Z,30.67
2023-04-02T14:02:18.744Z,30.58
2023-04-02T14:04:54.732Z,30.50
2023-04-02T14:07:38.078Z,30.46
2023-04-02T14:10:08.175Z,30.49
2023-04-02T14:12:50.429Z,30.54
2023-04-02T14:15:23.573Z,30.57
2023-04-02T14:17:56.793Z,30.54
2023-04-02T14:20:33.454Z,30.54
2023-04-02T14:23:11.707Z,30.57
2023-04-02T14:26:10.981Z,30.62
2023-04-02T14:29:00.394Z,30.59
2023-04-02T14:31:39.831Z,30.53
2023-04-02T14:34:18.961Z,30.49
2023-04-02T14:37:01.792Z,30.45
2023-04-02T14:39:32.222Z,30.42
2023-04-02T14:42:21.010Z,30.45
2023-04-02T14:44:54.617Z,30.42
2023-04-02T14:47:29.693Z,30.39
2023-04-02T14:50:07.731Z,30.34
2023-04-02T14:52:39.097Z,30.29
2023-04-02T14:55:15.052Z,30.23
2023-04-02T14:57:52.519Z,30.18
2023-04-02T15:00:22.676Z,30.13
2023-04-02T15:03:05.583Z,30.07
2023-04-02T15:05:41.452Z,30.04
2023-04-02T15:08:15.017Z,29.99
2023-04-02T15:10:51.194Z,29.99
2023-04-02T15:13:23.576Z,29.95
2023-04-02T15:15:58.860Z,29.91
2023-04-02T15:18:29.205Z,29.90
2023-04-02T15:21:05.156Z,29.83
2023-04-02T15:24:00.345Z,29.80
2023-04-02T15:26:38.323Z,29.77
2023-04-02T15:29:28.836Z,29.76
2023-04-02T15:32:04.542Z,29.71
2023-04-02T15:34:39.779Z,29.69
2023-04-02T15:37:10.564Z,29.70
2023-04-02T15:39:49.548Z,29.66
2023-04-02T15:42:22.870Z,29.64
2023-04-02T15:45:11.322Z,29.68
2023-04-02T15:47:42.230Z,29.71
2023-04-02T15:50:22.571Z,29.71
2023-04-02T15:52:59.752Z,29.69
2023-04-02T15:55:29.914Z,29.68
2023-04-02T15:58:18.639Z,29.69
2023-04-02T16:00:53.908Z,29.67
2023-04-02T16:03:29.778Z,29.64
2023-04-02T16:06:18.362Z,29.64
2023-04-02T16:08:54.385Z,29.61
2023-04-02T16:11:25.493Z,29.61
2023-04-02T16:14:06.674Z,29.57
2023-04-02T16:16:38.365Z,29.56
2023-04-02T16:19:18.443Z,29.53
2023-04-02T16:22:11.527Z,29.53
2023-04-02T16:24:41.700Z,29.51
2023-04-02T16:27:33.369Z,29.49
2023-04-02T16:30:29.390Z,29.51
2023-04-02T16:33:20.555Z,29.48
2023-04-02T16:36:09.228Z,29.44
2023-04-02T16:38:55.681Z,29.41
2023-04-02T16:41:37.829Z,29.39
2023-04-02T16:44:24.318Z,29.36
2023-04-02T16:47:04.176Z,29.34
2023-04-02T16:49:55.184Z,29.32
2023-04-02T16:52:25.560Z,29.30
2023-04-02T16:55:21.475Z,29.28
2023-04-02T16:58:02.453Z,29.27
2023-04-02T17:01:09.620Z,29.24
2023-04-02T17:04:29.181Z,29.18
2023-04-02T17:06:59.334Z,29.18
2023-04-02T17:09:34.820Z,29.16
2023-04-02T17:12:12.598Z,29.16
2023-04-02T17:14:45.570Z,29.13
2023-04-02T17:17:17.167Z,29.10
2023-04-02T17:19:49.389Z,29.07
2023-04-02T17:22:22.266Z,29.07
2023-04-02T17:24:55.263Z,29.03
2023-04-02T17:27:26.132Z,29.03
2023-04-02T17:30:16.344Z,29.01
2023-04-02T17:33:31.422Z,28.98
2023-04-02T17:36:11.693Z,28.95
2023-04-02T17:39:01.773Z,28.93
2023-04-02T17:41:32.320Z,28.91
2023-04-02T17:44:09.637Z,28.90
2023-04-02T17:46:56.719Z,28.91
2023-04-02T17:49:42.499Z,28.88
2023-04-02T17:52:35.233Z,28.85
2023-04-02T17:55:16.857Z,28.81
2023-04-02T17:57:56.553Z,28.79
2023-04-02T18:00:45.224Z,28.77
2023-04-02T18:03:33.728Z,28.77
2023-04-02T18:06:13.302Z,28.73
2023-04-02T18:08:43.864Z,28.72
2023-04-02T18:11:17.012Z,28.72
2023-04-02T18:14:13.276Z,28.73
2023-04-02T18:17:02.047Z,28.69
2023-04-02T18:19:41.816Z,28.69
2023-04-02T18:22:31.016Z,28.67
2023-04-02T18:25:10.388Z,28.64
2023-04-02T18:27:58.879Z,28.62
2023-04-02T18:30:49.396Z,28.62
2023-04-02T18:33:20.494Z,28.62
2023-04-02T18:35:51.351Z,28.60
2023-04-02T18:38:33.600Z,28.56
2023-04-02T18:41:23.168Z,28.58
2023-04-02T18:43:53.216Z,28.52
2023-04-02T18:46:39.295Z,28.52
2023-04-02T18:49:21.774Z,28.50
2023-04-02T18:51:55.321Z,28.49
2023-04-02T18:54:36.458Z,28.49
2023-04-02T18:57:25.478Z,28.47
2023-04-02T18:59:55.747Z,28.44
2023-04-02T19:02:43.250Z,28.46
2023-04-02T19:05:26.336Z,28.42
2023-04-02T19:08:01.137Z,28.37
2023-04-02T19:10:34.505Z,28.38
2023-04-02T19:13:04.635Z,28.13
2023-04-02T19:15:54.891Z,28.36
2023-04-02T19:18:33.946Z,28.35
2023-04-02T19:21:17.090Z,28.36
2023-04-02T19:24:05.521Z,28.35
2023-04-02T19:26:46.224Z,28.35
2023-04-02T19:29:26.575Z,28.31
2023-04-02T19:32:16.161Z,28.29
2023-04-02T19:35:14.155Z,28.31
2023-04-02T19:38:06.878Z,28.30
2023-04-02T19:40:52.952Z,28.26
2023-04-02T19:43:23.167Z,28.28
2023-04-02T19:45:55.580Z,28.25
2023-04-02T19:48:32.700Z,28.24
2023-04-02T19:51:02.882Z,28.23
2023-04-02T19:53:33.410Z,28.22
2023-04-02T19:56:03.816Z,28.18
2023-04-02T19:58:35.687Z,28.19
2023-04-02T20:01:06.096Z,28.19
2023-04-02T20:03:36.721Z,28.17
2023-04-02T20:06:07.769Z,28.16
2023-04-02T20:08:37.867Z,28.17
2023-04-02T20:11:08.406Z,28.16
2023-04-02T20:13:39.030Z,28.12
2023-04-02T20:16:09.316Z,28.12
2023-04-02T20:18:39.561Z,28.11
2023-04-02T20:21:11.008Z,28.11
2023-04-02T20:23:41.101Z,28.10
2023-04-02T20:26:11.660Z,28.07
2023-04-02T20:28:42.668Z,28.07
2023-04-02T20:31:14.233Z,28.05
2023-04-02T20:33:45.809Z,28.02
2023-04-02T20:36:18.321Z,28.02
2023-04-02T20:38:48.519Z,28.02
2023-04-02T20:41:19.536Z,28.01
2023-04-02T20:43:49.639Z,28.01
2023-04-02T20:46:21.511Z,27.99
2023-04-02T20:48:52.468Z,27.99
2023-04-02T20:51:23.182Z,27.99
2023-04-02T20:53:53.636Z,27.96
2023-04-02T20:56:28.032Z,27.92
2023-04-02T20:58:58.332Z,27.90
2023-04-02T21:01:29.914Z,27.88
2023-04-02T21:04:01.512Z,27.90
2023-04-02T21:06:33.528Z,27.87
2023-04-02T21:09:05.795Z,27.88
2023-04-02T21:11:38.632Z,27.85
2023-04-02T21:14:08.862Z,27.85
2023-04-02T21:16:39.243Z,27.82
2023-04-02T21:19:10.374Z,27.80
2023-04-02T21:21:41.849Z,27.79
2023-04-02T21:24:12.526Z,27.79
2023-04-02T21:26:43.685Z,27.78
2023-04-02T21:29:14.214Z,27.78
2023-04-02T21:31:44.737Z,27.77
2023-04-02T21:34:16.195Z,27.77
2023-04-02T21:36:47.670Z,27.71
2023-04-02T21:39:25.304Z,27.71
2023-04-02T21:41:56.150Z,27.71
2023-04-02T21:44:26.514Z,27.73
2023-04-02T21:46:57.548Z,27.71
2023-04-02T21:49:29.865Z,27.69
2023-04-02T21:51:59.980Z,27.69
2023-04-02T21:54:31.105Z,27.66
2023-04-02T21:57:01.426Z,27.69
2023-04-02T21:59:32.251Z,27.68
2023-04-02T22:02:02.385Z,27.70
2023-04-02T22:04:34.768Z,27.67
2023-04-02T22:07:04.985Z,27.65
2023-04-02T22:09:35.837Z,27.62
2023-04-02T22:12:08.120Z,27.59
2023-04-02T22:14:38.437Z,27.60
2023-04-02T22:17:08.781Z,27.59
2023-04-02T22:19:39.115Z,27.56
2023-04-02T22:22:09.460Z,27.56
2023-04-02T22:24:39.630Z,27.54
2023-04-02T22:27:09.881Z,27.54
2023-04-02T22:29:40.024Z,27.52
2023-04-02T22:32:10.563Z,27.50
2023-04-02T22:34:46.781Z,27.49
2023-04-02T22:37:17.326Z,27.46
2023-04-02T22:39:47.595Z,27.44
2023-04-02T22:42:18.114Z,27.46
2023-04-02T22:44:48.799Z,27.46
2023-04-02T22:47:19.738Z,27.43
2023-04-02T22:49:50.418Z,27.46
2023-04-02T22:52:20.677Z,27.46
2023-04-02T22:54:51.308Z,27.47
2023-04-02T22:57:22.854Z,27.46
2023-04-02T22:59:53.059Z,27.47
2023-04-02T23:02:23.382Z,27.46
2023-04-02T23:04:54.243Z,27.58
2023-04-02T23:07:24.430Z,27.74
2023-04-02T23:09:54.861Z,27.86
2023-04-02T23:12:25.215Z,28.00
2023-04-02T23:14:58.425Z,28.10
2023-04-02T23:17:28.730Z,28.24
2023-04-02T23:19:59.436Z,28.35
2023-04-02T23:22:29.556Z,28.41
2023-04-02T23:24:59.800Z,28.49
2023-04-02T23:27:30.523Z,28.61
2023-04-02T23:30:00.769Z,28.78
2023-04-02T23:32:31.377Z,28.90
2023-04-02T23:35:01.683Z,29.04
2023-04-02T23:37:31.899Z,29.14
2023-04-02T23:40:02.287Z,29.23
2023-04-02T23:42:32.871Z,29.33
2023-04-02T23:45:03.524Z,29.40
2023-04-02T23:47:34.437Z,29.49
2023-04-02T23:50:04.705Z,29.52
2023-04-02T23:52:34.847Z,29.54
2023-04-02T23:55:05.194Z,29.53
2023-04-02T23:57:35.620Z,29.54
